sensor_id;sensor_type;location;lat;lon;timestamp;temperature;humidity
58096;DHT22;43908;53.038;6.666;2022-11-20T00:00:00;-0.50;99.90
58096;DHT22;43908;53.038;6.666;2022-11-20T00:02:25;-0.50;99.90
58096;DHT22;43908;53.038;6.666;2022-11-20T00:04:51;-0.40;99.90
58096;DHT22;43908;53.038;6.666;2022-11-20T00:07:16;-0.40;99.90
58096;DHT22;43908;53.038;6.666;2022-11-20T00:09:42;-0.50;99.90
58096;DHT22;43908;53.038;6.666;2022-11-20T00:12:07;-0.60;99.90
58096;DHT22;43908;53.038;6.666;2022-11-20T00:14:33;-0.60;99.90
58096;DHT22;43908;53.038;6.666;2022-11-20T00:16:59;-0.70;99.90
58096;DHT22;43908;53.038;6.666;2022-11-20T00:19:24;-0.60;99.90
58096;DHT22;43908;53.038;6.666;2022-11-20T00:21:49;-0.50;99.90
58096;DHT22;43908;53.038;6.666;2022-11-20T00:24:16;-0.50;99.90
58096;DHT22;43908;53.038;6.666;2022-11-20T00:26:42;-0.40;99.90
58096;DHT22;43908;53.038;6.666;2022-11-20T00:29:08;-0.40;99.90
58096;DHT22;43908;53.038;6.666;2022-11-20T00:31:34;-0.40;99.90
58096;DHT22;43908;53.038;6.666;2022-11-20T00:34:00;-0.30;99.90
58096;DHT22;43908;53.038;6.666;2022-11-20T00:36:26;-0.20;99.90
58096;DHT22;43908;53.038;6.666;2022-11-20T00:38:52;-0.30;99.90
58096;DHT22;43908;53.038;6.666;2022-11-20T00:41:18;-0.40;99.90
58096;DHT22;43908;53.038;6.666;2022-11-20T00:43:44;-0.40;99.90
58096;DHT22;43908;53.038;6.666;2022-11-20T00:46:13;-0.30;99.90
58096;DHT22;43908;53.038;6.666;2022-11-20T00:48:39;-0.20;99.90
58096;DHT22;43908;53.038;6.666;2022-11-20T00:51:05;-0.20;99.90
58096;DHT22;43908;53.038;6.666;2022-11-20T00:53:30;-0.10;99.90
58096;DHT22;43908;53.038;6.666;2022-11-20T00:55:58;-0.10;99.90
58096;DHT22;43908;53.038;6.666;2022-11-20T00:58:24;-0.10;99.90
58096;DHT22;43908;53.038;6.666;2022-11-20T01:00:49;-0.10;99.90
58096;DHT22;43908;53.038;6.666;2022-11-20T01:03:16;-0.10;99.90
58096;DHT22;43908;53.038;6.666;2022-11-20T01:05:41;-0.10;99.90
58096;DHT22;43908;53.038;6.666;2022-11-20T01:08:07;0.00;99.90
58096;DHT22;43908;53.038;6.666;2022-11-20T01:10:33;0.00;99.90
58096;DHT22;43908;53.038;6.666;2022-11-20T01:12:58;0.00;99.90
58096;DHT22;43908;53.038;6.666;2022-11-20T01:15:42;0.10;99.90
58096;DHT22;43908;53.038;6.666;2022-11-20T01:18:07;0.10;99.90
58096;DHT22;43908;53.038;6.666;2022-11-20T01:20:36;0.10;99.90
58096;DHT22;43908;53.038;6.666;2022-11-20T01:23:02;0.10;99.90
58096;DHT22;43908;53.038;6.666;2022-11-20T01:25:28;0.20;99.90
58096;DHT22;43908;53.038;6.666;2022-11-20T01:27:54;0.20;99.90
58096;DHT22;43908;53.038;6.666;2022-11-20T01:30:19;0.20;99.90
58096;DHT22;43908;53.038;6.666;2022-11-20T01:32:45;0.10;99.90
58096;DHT22;43908;53.038;6.666;2022-11-20T01:35:10;0.00;99.90
58096;DHT22;43908;53.038;6.666;2022-11-20T01:37:35;0.00;99.90
58096;DHT22;43908;53.038;6.666;2022-11-20T01:40:01;0.00;99.90
58096;DHT22;43908;53.038;6.666;2022-11-20T01:42:26;0.00;99.90
58096;DHT22;43908;53.038;6.666;2022-11-20T01:47:55;0.10;99.90
58096;DHT22;43908;53.038;6.666;2022-11-20T01:52:47;0.20;99.90
58096;DHT22;43908;53.038;6.666;2022-11-20T01:55:16;0.20;99.90
58096;DHT22;43908;53.038;6.666;2022-11-20T01:57:42;0.20;99.90
58096;DHT22;43908;53.038;6.666;2022-11-20T02:00:09;0.20;99.90
58096;DHT22;43908;53.038;6.666;2022-11-20T02:02:36;0.10;99.90
58096;DHT22;43908;53.038;6.666;2022-11-20T02:05:04;0.10;99.90
58096;DHT22;43908;53.038;6.666;2022-11-20T02:07:34;0.20;99.90
58096;DHT22;43908;53.038;6.666;2022-11-20T02:10:00;0.20;99.90
58096;DHT22;43908;53.038;6.666;2022-11-20T02:12:25;0.20;99.90
58096;DHT22;43908;53.038;6.666;2022-11-20T02:15:09;0.20;99.90
58096;DHT22;43908;53.038;6.666;2022-11-20T02:17:35;0.30;99.90
58096;DHT22;43908;53.038;6.666;2022-11-20T02:20:00;0.30;99.90
58096;DHT22;43908;53.038;6.666;2022-11-20T02:22:28;0.30;99.90
58096;DHT22;43908;53.038;6.666;2022-11-20T02:24:54;0.30;99.90
58096;DHT22;43908;53.038;6.666;2022-11-20T02:27:20;0.40;99.90
58096;DHT22;43908;53.038;6.666;2022-11-20T02:29:47;0.40;99.90
58096;DHT22;43908;53.038;6.666;2022-11-20T02:32:22;0.40;99.90
58096;DHT22;43908;53.038;6.666;2022-11-20T02:34:48;0.40;99.90
58096;DHT22;43908;53.038;6.666;2022-11-20T02:37:14;0.40;99.90
58096;DHT22;43908;53.038;6.666;2022-11-20T02:39:40;0.40;99.90
58096;DHT22;43908;53.038;6.666;2022-11-20T02:42:06;0.50;99.90
58096;DHT22;43908;53.038;6.666;2022-11-20T02:44:32;0.50;99.90
58096;DHT22;43908;53.038;6.666;2022-11-20T02:46:57;0.50;99.90
58096;DHT22;43908;53.038;6.666;2022-11-20T02:49:24;0.50;99.90
58096;DHT22;43908;53.038;6.666;2022-11-20T02:51:49;0.60;99.90
58096;DHT22;43908;53.038;6.666;2022-11-20T02:54:15;0.50;99.90
58096;DHT22;43908;53.038;6.666;2022-11-20T02:56:40;0.50;99.90
58096;DHT22;43908;53.038;6.666;2022-11-20T02:59:06;0.60;99.90
58096;DHT22;43908;53.038;6.666;2022-11-20T03:01:31;0.60;99.90
58096;DHT22;43908;53.038;6.666;2022-11-20T03:03:57;0.60;99.90
58096;DHT22;43908;53.038;6.666;2022-11-20T03:06:22;0.60;99.90
58096;DHT22;43908;53.038;6.666;2022-11-20T03:08:48;0.60;99.90
58096;DHT22;43908;53.038;6.666;2022-11-20T03:11:13;0.60;99.90
58096;DHT22;43908;53.038;6.666;2022-11-20T03:13:39;0.50;99.90
58096;DHT22;43908;53.038;6.666;2022-11-20T03:16:14;0.50;99.90
58096;DHT22;43908;53.038;6.666;2022-11-20T03:18:41;0.40;99.90
58096;DHT22;43908;53.038;6.666;2022-11-20T03:21:07;0.40;99.90
58096;DHT22;43908;53.038;6.666;2022-11-20T03:23:33;0.50;99.90
58096;DHT22;43908;53.038;6.666;2022-11-20T03:26:09;0.50;99.90
58096;DHT22;43908;53.038;6.666;2022-11-20T03:28:34;0.50;99.90
58096;DHT22;43908;53.038;6.666;2022-11-20T03:31:07;0.50;99.90
58096;DHT22;43908;53.038;6.666;2022-11-20T03:33:32;0.50;99.90
58096;DHT22;43908;53.038;6.666;2022-11-20T03:36:02;0.60;99.90
58096;DHT22;43908;53.038;6.666;2022-11-20T03:38:28;0.60;99.90
58096;DHT22;43908;53.038;6.666;2022-11-20T03:40:57;0.60;99.90
58096;DHT22;43908;53.038;6.666;2022-11-20T03:43:23;0.60;99.90
58096;DHT22;43908;53.038;6.666;2022-11-20T03:45:48;0.50;99.90
58096;DHT22;43908;53.038;6.666;2022-11-20T03:48:14;0.40;99.90
58096;DHT22;43908;53.038;6.666;2022-11-20T03:50:39;0.40;99.90
58096;DHT22;43908;53.038;6.666;2022-11-20T03:53:05;0.50;99.90
58096;DHT22;43908;53.038;6.666;2022-11-20T03:55:30;0.50;99.90
58096;DHT22;43908;53.038;6.666;2022-11-20T03:57:55;0.50;99.90
58096;DHT22;43908;53.038;6.666;2022-11-20T04:00:21;0.60;99.90
58096;DHT22;43908;53.038;6.666;2022-11-20T04:02:46;0.60;99.90
58096;DHT22;43908;53.038;6.666;2022-11-20T04:05:12;0.60;99.90
58096;DHT22;43908;53.038;6.666;2022-11-20T04:07:37;0.60;99.90
58096;DHT22;43908;53.038;6.666;2022-11-20T04:10:03;0.70;99.90
58096;DHT22;43908;53.038;6.666;2022-11-20T04:12:31;0.70;99.90
58096;DHT22;43908;53.038;6.666;2022-11-20T04:14:56;0.70;99.90
58096;DHT22;43908;53.038;6.666;2022-11-20T04:17:22;0.70;99.90
58096;DHT22;43908;53.038;6.666;2022-11-20T04:19:47;0.70;99.90
58096;DHT22;43908;53.038;6.666;2022-11-20T04:22:13;0.70;99.90
58096;DHT22;43908;53.038;6.666;2022-11-20T04:24:38;0.80;99.90
58096;DHT22;43908;53.038;6.666;2022-11-20T04:27:04;0.80;99.90
58096;DHT22;43908;53.038;6.666;2022-11-20T04:29:29;0.80;99.90
58096;DHT22;43908;53.038;6.666;2022-11-20T04:31:55;0.80;99.90
58096;DHT22;43908;53.038;6.666;2022-11-20T04:34:20;0.80;99.90
58096;DHT22;43908;53.038;6.666;2022-11-20T04:36:46;0.80;99.90
58096;DHT22;43908;53.038;6.666;2022-11-20T04:39:12;0.80;99.90
58096;DHT22;43908;53.038;6.666;2022-11-20T04:41:38;0.80;99.90
58096;DHT22;43908;53.038;6.666;2022-11-20T04:44:04;0.80;99.90
58096;DHT22;43908;53.038;6.666;2022-11-20T04:46:31;0.70;99.90
58096;DHT22;43908;53.038;6.666;2022-11-20T04:48:58;0.70;99.90
58096;DHT22;43908;53.038;6.666;2022-11-20T04:51:24;0.70;99.90
58096;DHT22;43908;53.038;6.666;2022-11-20T04:53:49;0.70;99.90
58096;DHT22;43908;53.038;6.666;2022-11-20T04:56:15;0.80;99.90
58096;DHT22;43908;53.038;6.666;2022-11-20T04:58:40;0.80;99.90
58096;DHT22;43908;53.038;6.666;2022-11-20T05:01:07;0.80;99.90
58096;DHT22;43908;53.038;6.666;2022-11-20T05:03:33;0.90;99.90
58096;DHT22;43908;53.038;6.666;2022-11-20T05:06:02;0.90;99.90
58096;DHT22;43908;53.038;6.666;2022-11-20T05:08:28;0.90;99.90
58096;DHT22;43908;53.038;6.666;2022-11-20T05:10:54;0.90;99.90
58096;DHT22;43908;53.038;6.666;2022-11-20T05:13:19;0.90;99.90
58096;DHT22;43908;53.038;6.666;2022-11-20T05:15:45;0.90;99.90
58096;DHT22;43908;53.038;6.666;2022-11-20T05:18:10;0.90;99.90
58096;DHT22;43908;53.038;6.666;2022-11-20T05:20:36;0.90;99.90
58096;DHT22;43908;53.038;6.666;2022-11-20T05:23:01;0.80;99.90
58096;DHT22;43908;53.038;6.666;2022-11-20T05:25:27;0.90;99.90
58096;DHT22;43908;53.038;6.666;2022-11-20T05:27:52;0.90;99.90
58096;DHT22;43908;53.038;6.666;2022-11-20T05:30:18;1.00;99.90
58096;DHT22;43908;53.038;6.666;2022-11-20T05:32:43;0.90;99.90
58096;DHT22;43908;53.038;6.666;2022-11-20T05:35:09;0.90;99.90
58096;DHT22;43908;53.038;6.666;2022-11-20T05:37:34;0.90;99.90
58096;DHT22;43908;53.038;6.666;2022-11-20T05:40:00;1.00;99.90
58096;DHT22;43908;53.038;6.666;2022-11-20T05:42:25;1.00;99.90
58096;DHT22;43908;53.038;6.666;2022-11-20T05:45:00;1.00;99.90
58096;DHT22;43908;53.038;6.666;2022-11-20T05:47:27;1.00;99.90
58096;DHT22;43908;53.038;6.666;2022-11-20T05:49:53;0.80;99.90
58096;DHT22;43908;53.038;6.666;2022-11-20T05:52:18;0.70;99.90
58096;DHT22;43908;53.038;6.666;2022-11-20T05:54:44;0.70;99.90
58096;DHT22;43908;53.038;6.666;2022-11-20T05:57:09;0.70;99.90
58096;DHT22;43908;53.038;6.666;2022-11-20T05:59:35;0.70;99.90
58096;DHT22;43908;53.038;6.666;2022-11-20T06:02:00;0.70;99.90
58096;DHT22;43908;53.038;6.666;2022-11-20T06:04:26;0.80;99.90
58096;DHT22;43908;53.038;6.666;2022-11-20T06:06:51;0.80;99.90
58096;DHT22;43908;53.038;6.666;2022-11-20T06:09:17;0.90;99.90
58096;DHT22;43908;53.038;6.666;2022-11-20T06:11:42;0.90;99.90
58096;DHT22;43908;53.038;6.666;2022-11-20T06:14:08;0.90;99.90
58096;DHT22;43908;53.038;6.666;2022-11-20T06:16:33;0.90;99.90
58096;DHT22;43908;53.038;6.666;2022-11-20T06:18:59;0.90;99.90
58096;DHT22;43908;53.038;6.666;2022-11-20T06:21:24;0.90;99.90
58096;DHT22;43908;53.038;6.666;2022-11-20T06:23:50;1.00;99.90
58096;DHT22;43908;53.038;6.666;2022-11-20T06:26:17;1.00;99.90
58096;DHT22;43908;53.038;6.666;2022-11-20T06:28:42;0.90;99.90
58096;DHT22;43908;53.038;6.666;2022-11-20T06:31:09;1.00;99.90
58096;DHT22;43908;53.038;6.666;2022-11-20T06:33:35;1.00;99.90
58096;DHT22;43908;53.038;6.666;2022-11-20T06:36:01;1.00;99.90
58096;DHT22;43908;53.038;6.666;2022-11-20T06:38:27;1.00;99.90
58096;DHT22;43908;53.038;6.666;2022-11-20T06:40:52;1.00;99.90
58096;DHT22;43908;53.038;6.666;2022-11-20T06:43:18;1.00;99.90
58096;DHT22;43908;53.038;6.666;2022-11-20T06:45:44;1.00;99.90
58096;DHT22;43908;53.038;6.666;2022-11-20T06:48:09;1.00;99.90
58096;DHT22;43908;53.038;6.666;2022-11-20T06:50:38;1.00;99.90
58096;DHT22;43908;53.038;6.666;2022-11-20T06:53:04;0.90;99.90
58096;DHT22;43908;53.038;6.666;2022-11-20T06:55:30;1.00;99.90
58096;DHT22;43908;53.038;6.666;2022-11-20T06:57:55;0.90;99.90
58096;DHT22;43908;53.038;6.666;2022-11-20T07:00:21;1.00;99.90
58096;DHT22;43908;53.038;6.666;2022-11-20T07:02:46;1.00;99.90
58096;DHT22;43908;53.038;6.666;2022-11-20T07:05:12;1.00;99.90
58096;DHT22;43908;53.038;6.666;2022-11-20T07:07:37;1.00;99.90
58096;DHT22;43908;53.038;6.666;2022-11-20T07:10:03;1.00;99.90
58096;DHT22;43908;53.038;6.666;2022-11-20T07:12:29;1.00;99.90
58096;DHT22;43908;53.038;6.666;2022-11-20T07:14:54;1.10;99.90
58096;DHT22;43908;53.038;6.666;2022-11-20T07:17:20;1.10;99.90
58096;DHT22;43908;53.038;6.666;2022-11-20T07:19:45;1.10;99.90
58096;DHT22;43908;53.038;6.666;2022-11-20T07:22:11;1.10;99.90
58096;DHT22;43908;53.038;6.666;2022-11-20T07:24:36;1.10;99.90
58096;DHT22;43908;53.038;6.666;2022-11-20T07:27:02;1.10;99.90
58096;DHT22;43908;53.038;6.666;2022-11-20T07:29:27;1.10;99.90
58096;DHT22;43908;53.038;6.666;2022-11-20T07:31:53;1.10;99.90
58096;DHT22;43908;53.038;6.666;2022-11-20T07:34:20;1.10;99.90
58096;DHT22;43908;53.038;6.666;2022-11-20T07:36:46;1.20;99.90
58096;DHT22;43908;53.038;6.666;2022-11-20T07:39:11;1.20;99.90
58096;DHT22;43908;53.038;6.666;2022-11-20T07:41:37;1.20;99.90
58096;DHT22;43908;53.038;6.666;2022-11-20T07:44:02;1.20;99.90
58096;DHT22;43908;53.038;6.666;2022-11-20T07:46:28;1.20;99.90
58096;DHT22;43908;53.038;6.666;2022-11-20T07:48:53;1.20;99.90
58096;DHT22;43908;53.038;6.666;2022-11-20T07:51:19;1.20;99.90
58096;DHT22;43908;53.038;6.666;2022-11-20T07:53:44;1.20;99.90
58096;DHT22;43908;53.038;6.666;2022-11-20T07:56:10;1.20;99.90
58096;DHT22;43908;53.038;6.666;2022-11-20T07:58:35;1.30;99.90
58096;DHT22;43908;53.038;6.666;2022-11-20T08:01:04;1.30;99.90
58096;DHT22;43908;53.038;6.666;2022-11-20T08:03:30;1.30;99.90
58096;DHT22;43908;53.038;6.666;2022-11-20T08:05:58;1.30;99.90
58096;DHT22;43908;53.038;6.666;2022-11-20T08:08:23;1.30;99.90
58096;DHT22;43908;53.038;6.666;2022-11-20T08:10:48;1.40;99.90
58096;DHT22;43908;53.038;6.666;2022-11-20T08:13:14;1.40;99.90
58096;DHT22;43908;53.038;6.666;2022-11-20T08:15:58;1.40;99.90
58096;DHT22;43908;53.038;6.666;2022-11-20T08:18:24;1.50;99.90
58096;DHT22;43908;53.038;6.666;2022-11-20T08:20:49;1.50;99.90
58096;DHT22;43908;53.038;6.666;2022-11-20T08:23:14;1.50;99.90
58096;DHT22;43908;53.038;6.666;2022-11-20T08:25:40;1.60;99.90
58096;DHT22;43908;53.038;6.666;2022-11-20T08:28:06;1.60;99.90
58096;DHT22;43908;53.038;6.666;2022-11-20T08:30:32;1.60;99.90
58096;DHT22;43908;53.038;6.666;2022-11-20T08:33:05;1.60;99.90
58096;DHT22;43908;53.038;6.666;2022-11-20T08:35:37;1.70;99.90
58096;DHT22;43908;53.038;6.666;2022-11-20T08:38:03;1.70;99.90
58096;DHT22;43908;53.038;6.666;2022-11-20T08:40:29;1.70;99.90
58096;DHT22;43908;53.038;6.666;2022-11-20T08:42:55;1.70;99.90
58096;DHT22;43908;53.038;6.666;2022-11-20T08:45:20;1.70;99.90
58096;DHT22;43908;53.038;6.666;2022-11-20T08:47:46;1.80;99.90
58096;DHT22;43908;53.038;6.666;2022-11-20T08:50:12;1.80;99.90
58096;DHT22;43908;53.038;6.666;2022-11-20T08:52:38;1.80;99.90
58096;DHT22;43908;53.038;6.666;2022-11-20T08:55:04;1.80;99.90
58096;DHT22;43908;53.038;6.666;2022-11-20T08:57:36;1.80;99.90
58096;DHT22;43908;53.038;6.666;2022-11-20T09:00:03;1.90;99.90
58096;DHT22;43908;53.038;6.666;2022-11-20T09:02:29;1.90;99.90
58096;DHT22;43908;53.038;6.666;2022-11-20T09:04:54;1.90;99.90
58096;DHT22;43908;53.038;6.666;2022-11-20T09:07:20;1.90;99.90
58096;DHT22;43908;53.038;6.666;2022-11-20T09:09:45;2.00;99.90
58096;DHT22;43908;53.038;6.666;2022-11-20T09:12:11;2.00;99.90
58096;DHT22;43908;53.038;6.666;2022-11-20T09:14:36;2.10;99.90
58096;DHT22;43908;53.038;6.666;2022-11-20T09:17:02;2.00;99.90
58096;DHT22;43908;53.038;6.666;2022-11-20T09:19:27;2.00;99.90
58096;DHT22;43908;53.038;6.666;2022-11-20T09:21:53;2.10;99.90
58096;DHT22;43908;53.038;6.666;2022-11-20T09:24:19;2.10;99.90
58096;DHT22;43908;53.038;6.666;2022-11-20T09:26:45;2.10;99.90
58096;DHT22;43908;53.038;6.666;2022-11-20T09:29:11;2.10;99.90
58096;DHT22;43908;53.038;6.666;2022-11-20T09:31:36;2.20;99.90
58096;DHT22;43908;53.038;6.666;2022-11-20T09:34:02;2.30;99.90
58096;DHT22;43908;53.038;6.666;2022-11-20T09:36:27;2.30;99.90
58096;DHT22;43908;53.038;6.666;2022-11-20T09:38:53;2.30;99.90
58096;DHT22;43908;53.038;6.666;2022-11-20T09:46:29;2.50;99.90
58096;DHT22;43908;53.038;6.666;2022-11-20T09:49:01;2.50;99.90
58096;DHT22;43908;53.038;6.666;2022-11-20T09:54:17;2.60;99.90
58096;DHT22;43908;53.038;6.666;2022-11-20T09:56:50;2.70;99.90
58096;DHT22;43908;53.038;6.666;2022-11-20T09:59:24;2.70;99.90
58096;DHT22;43908;53.038;6.666;2022-11-20T10:01:51;2.70;99.90
58096;DHT22;43908;53.038;6.666;2022-11-20T10:04:18;2.70;99.90
58096;DHT22;43908;53.038;6.666;2022-11-20T10:06:53;2.70;99.90
58096;DHT22;43908;53.038;6.666;2022-11-20T10:09:37;2.70;99.90
58096;DHT22;43908;53.038;6.666;2022-11-20T10:17:50;2.70;99.90
58096;DHT22;43908;53.038;6.666;2022-11-20T10:20:24;2.80;99.90
58096;DHT22;43908;53.038;6.666;2022-11-20T10:25:41;2.90;99.90
58096;DHT22;43908;53.038;6.666;2022-11-20T10:28:21;3.00;99.90
58096;DHT22;43908;53.038;6.666;2022-11-20T10:30:53;3.00;99.90
58096;DHT22;43908;53.038;6.666;2022-11-20T10:33:23;3.10;99.90
58096;DHT22;43908;53.038;6.666;2022-11-20T10:38:26;3.20;99.90
58096;DHT22;43908;53.038;6.666;2022-11-20T10:40:57;3.30;99.90
58096;DHT22;43908;53.038;6.666;2022-11-20T10:43:44;3.40;99.90
58096;DHT22;43908;53.038;6.666;2022-11-20T10:46:17;3.50;99.90
58096;DHT22;43908;53.038;6.666;2022-11-20T10:48:44;3.50;99.90
58096;DHT22;43908;53.038;6.666;2022-11-20T10:54:16;3.50;99.90
58096;DHT22;43908;53.038;6.666;2022-11-20T10:56:48;3.60;99.90
58096;DHT22;43908;53.038;6.666;2022-11-20T11:01:44;3.70;99.90
58096;DHT22;43908;53.038;6.666;2022-11-20T11:04:28;3.70;99.90
58096;DHT22;43908;53.038;6.666;2022-11-20T11:06:57;3.70;99.90
58096;DHT22;43908;53.038;6.666;2022-11-20T11:09:28;3.60;99.90
58096;DHT22;43908;53.038;6.666;2022-11-20T11:11:57;3.60;99.90
58096;DHT22;43908;53.038;6.666;2022-11-20T11:14:23;3.70;99.90
58096;DHT22;43908;53.038;6.666;2022-11-20T11:16:50;3.70;99.90
58096;DHT22;43908;53.038;6.666;2022-11-20T11:19:16;3.70;99.90
58096;DHT22;43908;53.038;6.666;2022-11-20T11:21:48;3.60;99.90
58096;DHT22;43908;53.038;6.666;2022-11-20T11:24:35;3.60;99.90
58096;DHT22;43908;53.038;6.666;2022-11-20T11:27:01;3.50;99.90
58096;DHT22;43908;53.038;6.666;2022-11-20T11:29:32;3.50;99.90
58096;DHT22;43908;53.038;6.666;2022-11-20T11:32:08;3.50;99.90
58096;DHT22;43908;53.038;6.666;2022-11-20T11:34:34;3.50;99.90
58096;DHT22;43908;53.038;6.666;2022-11-20T11:36:59;3.60;99.90
58096;DHT22;43908;53.038;6.666;2022-11-20T11:39:26;3.60;99.90
58096;DHT22;43908;53.038;6.666;2022-11-20T11:41:52;3.60;99.90
58096;DHT22;43908;53.038;6.666;2022-11-20T11:44:28;3.60;99.90
58096;DHT22;43908;53.038;6.666;2022-11-20T11:49:44;3.60;99.90
58096;DHT22;43908;53.038;6.666;2022-11-20T11:52:17;3.60;99.90
58096;DHT22;43908;53.038;6.666;2022-11-20T11:55:03;3.70;99.90
58096;DHT22;43908;53.038;6.666;2022-11-20T11:57:47;3.70;99.90
58096;DHT22;43908;53.038;6.666;2022-11-20T12:00:19;3.60;99.90
58096;DHT22;43908;53.038;6.666;2022-11-20T12:12:46;3.60;99.90
58096;DHT22;43908;53.038;6.666;2022-11-20T12:15:16;3.60;99.90
58096;DHT22;43908;53.038;6.666;2022-11-20T12:17:46;3.70;99.90
58096;DHT22;43908;53.038;6.666;2022-11-20T12:20:13;3.80;99.90
58096;DHT22;43908;53.038;6.666;2022-11-20T12:25:33;4.00;99.90
58096;DHT22;43908;53.038;6.666;2022-11-20T12:28:02;4.20;99.90
58096;DHT22;43908;53.038;6.666;2022-11-20T12:30:29;4.20;99.90
58096;DHT22;43908;53.038;6.666;2022-11-20T12:33:06;4.40;99.90
58096;DHT22;43908;53.038;6.666;2022-11-20T12:43:31;4.80;99.90
58096;DHT22;43908;53.038;6.666;2022-11-20T12:46:41;4.90;99.90
58096;DHT22;43908;53.038;6.666;2022-11-20T12:52:17;4.70;99.90
58096;DHT22;43908;53.038;6.666;2022-11-20T12:54:57;4.60;99.90
58096;DHT22;43908;53.038;6.666;2022-11-20T12:57:26;4.50;99.90
58096;DHT22;43908;53.038;6.666;2022-11-20T13:04:53;4.30;99.90
58096;DHT22;43908;53.038;6.666;2022-11-20T13:07:20;4.30;99.90
58096;DHT22;43908;53.038;6.666;2022-11-20T13:09:47;4.30;99.90
58096;DHT22;43908;53.038;6.666;2022-11-20T13:12:19;4.40;99.90
58096;DHT22;43908;53.038;6.666;2022-11-20T13:14:53;4.30;99.90
58096;DHT22;43908;53.038;6.666;2022-11-20T13:17:24;4.40;99.90
58096;DHT22;43908;53.038;6.666;2022-11-20T13:19:55;4.40;99.90
58096;DHT22;43908;53.038;6.666;2022-11-20T13:22:24;4.50;99.90
58096;DHT22;43908;53.038;6.666;2022-11-20T13:24:51;4.40;99.90
58096;DHT22;43908;53.038;6.666;2022-11-20T13:27:18;4.50;99.90
58096;DHT22;43908;53.038;6.666;2022-11-20T13:29:47;4.50;99.90
58096;DHT22;43908;53.038;6.666;2022-11-20T13:32:24;4.50;99.90
58096;DHT22;43908;53.038;6.666;2022-11-20T13:34:56;4.40;99.90
58096;DHT22;43908;53.038;6.666;2022-11-20T13:37:30;4.50;99.90
58096;DHT22;43908;53.038;6.666;2022-11-20T13:42:43;4.40;99.90
58096;DHT22;43908;53.038;6.666;2022-11-20T13:45:10;4.30;99.90
58096;DHT22;43908;53.038;6.666;2022-11-20T13:47:36;4.30;99.90
58096;DHT22;43908;53.038;6.666;2022-11-20T13:50:02;4.30;99.90
58096;DHT22;43908;53.038;6.666;2022-11-20T13:55:16;4.20;99.90
58096;DHT22;43908;53.038;6.666;2022-11-20T14:00:22;4.20;99.90
58096;DHT22;43908;53.038;6.666;2022-11-20T14:05:46;4.20;99.90
58096;DHT22;43908;53.038;6.666;2022-11-20T14:08:19;4.20;99.90
58096;DHT22;43908;53.038;6.666;2022-11-20T14:10:48;4.20;99.90
58096;DHT22;43908;53.038;6.666;2022-11-20T14:13:19;4.20;99.90
58096;DHT22;43908;53.038;6.666;2022-11-20T14:15:45;4.20;99.90
58096;DHT22;43908;53.038;6.666;2022-11-20T14:18:15;4.20;99.90
58096;DHT22;43908;53.038;6.666;2022-11-20T14:20:41;4.10;99.90
58096;DHT22;43908;53.038;6.666;2022-11-20T14:23:07;4.00;99.90
58096;DHT22;43908;53.038;6.666;2022-11-20T14:25:34;3.90;99.90
58096;DHT22;43908;53.038;6.666;2022-11-20T14:28:00;3.90;99.90
58096;DHT22;43908;53.038;6.666;2022-11-20T14:30:27;3.80;99.90
58096;DHT22;43908;53.038;6.666;2022-11-20T14:32:55;3.80;99.90
58096;DHT22;43908;53.038;6.666;2022-11-20T14:35:23;3.70;99.90
58096;DHT22;43908;53.038;6.666;2022-11-20T14:37:49;3.70;99.90
58096;DHT22;43908;53.038;6.666;2022-11-20T14:40:34;3.50;99.90
58096;DHT22;43908;53.038;6.666;2022-11-20T14:43:15;3.50;99.90
58096;DHT22;43908;53.038;6.666;2022-11-20T14:45:41;3.50;99.90
58096;DHT22;43908;53.038;6.666;2022-11-20T14:48:08;3.40;99.90
58096;DHT22;43908;53.038;6.666;2022-11-20T14:50:34;3.30;99.90
58096;DHT22;43908;53.038;6.666;2022-11-20T14:53:00;3.30;99.90
58096;DHT22;43908;53.038;6.666;2022-11-20T14:55:33;3.20;99.90
58096;DHT22;43908;53.038;6.666;2022-11-20T14:58:03;3.10;99.90
58096;DHT22;43908;53.038;6.666;2022-11-20T15:00:29;3.10;99.90
58096;DHT22;43908;53.038;6.666;2022-11-20T15:02:55;3.10;99.90
58096;DHT22;43908;53.038;6.666;2022-11-20T15:05:22;3.10;99.90
58096;DHT22;43908;53.038;6.666;2022-11-20T15:07:48;3.00;99.90
58096;DHT22;43908;53.038;6.666;2022-11-20T15:10:24;2.90;99.90
58096;DHT22;43908;53.038;6.666;2022-11-20T15:12:51;2.80;99.90
58096;DHT22;43908;53.038;6.666;2022-11-20T15:15:18;2.80;99.90
58096;DHT22;43908;53.038;6.666;2022-11-20T15:17:45;2.70;99.90
58096;DHT22;43908;53.038;6.666;2022-11-20T15:20:12;2.60;99.90
58096;DHT22;43908;53.038;6.666;2022-11-20T15:22:38;2.60;99.90
58096;DHT22;43908;53.038;6.666;2022-11-20T15:25:14;2.60;99.90
58096;DHT22;43908;53.038;6.666;2022-11-20T15:27:40;2.50;99.90
58096;DHT22;43908;53.038;6.666;2022-11-20T15:30:12;2.50;99.90
58096;DHT22;43908;53.038;6.666;2022-11-20T15:32:38;2.50;99.90
58096;DHT22;43908;53.038;6.666;2022-11-20T15:35:04;2.40;99.90
58096;DHT22;43908;53.038;6.666;2022-11-20T15:37:29;2.40;99.90
58096;DHT22;43908;53.038;6.666;2022-11-20T15:39:55;2.30;99.90
58096;DHT22;43908;53.038;6.666;2022-11-20T15:42:20;2.40;99.90
58096;DHT22;43908;53.038;6.666;2022-11-20T15:44:46;2.40;99.90
58096;DHT22;43908;53.038;6.666;2022-11-20T15:47:11;2.40;99.90
58096;DHT22;43908;53.038;6.666;2022-11-20T15:49:37;2.30;99.90
58096;DHT22;43908;53.038;6.666;2022-11-20T15:52:02;2.40;99.90
58096;DHT22;43908;53.038;6.666;2022-11-20T15:54:28;2.30;99.90
58096;DHT22;43908;53.038;6.666;2022-11-20T15:56:53;2.20;99.90
58096;DHT22;43908;53.038;6.666;2022-11-20T15:59:19;2.20;99.90
58096;DHT22;43908;53.038;6.666;2022-11-20T16:01:45;2.20;99.90
58096;DHT22;43908;53.038;6.666;2022-11-20T16:04:11;2.20;99.90
58096;DHT22;43908;53.038;6.666;2022-11-20T16:06:37;2.20;99.90
58096;DHT22;43908;53.038;6.666;2022-11-20T16:09:03;2.20;99.90
58096;DHT22;43908;53.038;6.666;2022-11-20T16:11:29;2.20;99.90
58096;DHT22;43908;53.038;6.666;2022-11-20T16:13:54;2.20;99.90
58096;DHT22;43908;53.038;6.666;2022-11-20T16:16:38;2.10;99.90
58096;DHT22;43908;53.038;6.666;2022-11-20T16:19:05;2.10;99.90
58096;DHT22;43908;53.038;6.666;2022-11-20T16:21:31;2.20;99.90
58096;DHT22;43908;53.038;6.666;2022-11-20T16:24:04;2.20;99.90
58096;DHT22;43908;53.038;6.666;2022-11-20T16:26:30;2.20;99.90
58096;DHT22;43908;53.038;6.666;2022-11-20T16:28:55;2.20;99.90
58096;DHT22;43908;53.038;6.666;2022-11-20T16:31:21;2.20;99.90
58096;DHT22;43908;53.038;6.666;2022-11-20T16:33:50;2.10;99.90
58096;DHT22;43908;53.038;6.666;2022-11-20T16:36:16;2.10;99.90
58096;DHT22;43908;53.038;6.666;2022-11-20T16:38:41;2.10;99.90
58096;DHT22;43908;53.038;6.666;2022-11-20T16:41:07;2.20;99.90
58096;DHT22;43908;53.038;6.666;2022-11-20T16:43:46;2.10;99.90
58096;DHT22;43908;53.038;6.666;2022-11-20T16:46:13;2.10;99.90
58096;DHT22;43908;53.038;6.666;2022-11-20T16:48:38;2.10;99.90
58096;DHT22;43908;53.038;6.666;2022-11-20T16:51:04;2.10;99.90
58096;DHT22;43908;53.038;6.666;2022-11-20T16:53:32;2.10;99.90
58096;DHT22;43908;53.038;6.666;2022-11-20T16:56:07;2.10;99.90
58096;DHT22;43908;53.038;6.666;2022-11-20T16:58:34;2.10;99.90